Time;durP1;ratioP1;P1;durP2;ratioP2;P2;SDS_P1;SDS_P2;PMS_P1;PMS_P2;Temp;Humidity;BMP_temperature;BMP_pressure;BME280_temperature;BME280_humidity;BME280_pressure;Samples;Min_cycle;Max_cycle;Signal;HPM_P1;HPM_P2
2022/08/26 14:05:54;;;;;;;18.75;14.07;;;28.70;1.00;;;;;;5093020;27;20537;-68
2022/08/26 14:08:22;;;;;;;15.98;13.98;;;28.60;1.00;;;;;;5083462;28;20189;-69
2022/08/26 14:10:49;;;;;;;18.02;12.65;;;28.20;1.00;;;;;;5082170;28;20211;-69
2022/08/26 14:13:17;;;;;;;20.35;12.80;;;28.20;1.00;;;;;;5081269;28;20236;-69
2022/08/26 14:15:44;;;;;;;15.48;12.45;;;28.30;1.00;;;;;;5061061;28;20199;-70
2022/08/26 14:18:14;;;;;;;17.50;12.52;;;28.20;1.00;;;;;;5070728;28;20206;-70
2022/08/26 14:20:48;;;;;;;15.82;11.38;;;28.30;1.00;;;;;;5076641;28;20556;-69
2022/08/26 14:23:16;;;;;;;15.07;10.32;;;28.60;1.00;;;;;;5041789;28;20206;-68
2022/08/26 14:25:43;;;;;;;14.95;10.52;;;28.70;1.00;;;;;;5044994;28;20222;-69
2022/08/26 14:28:10;;;;;;;11.90;9.20;;;28.90;1.00;;;;;;5036179;28;20199;-70
2022/08/26 14:30:42;;;;;;;13.43;9.57;;;28.90;1.00;;;;;;5050023;28;20770;-69
2022/08/26 14:33:13;;;;;;;14.48;10.15;;;28.70;1.00;;;;;;5055850;28;20195;-70
2022/08/26 14:35:40;;;;;;;13.35;9.35;;;28.30;1.00;;;;;;5036648;28;20200;-69
2022/08/26 14:38:15;;;;;;;12.13;9.27;;;28.30;1.00;;;;;;5056513;28;20554;-70
2022/08/26 14:40:46;;;;;;;14.43;9.25;;;28.30;1.00;;;;;;5037900;28;20215;-70
2022/08/26 14:43:16;;;;;;;15.68;8.93;;;28.50;1.00;;;;;;5057097;28;20195;-69
2022/08/26 14:45:44;;;;;;;18.95;9.88;;;28.50;1.00;;;;;;5052680;28;20226;-71
2022/08/26 14:48:11;;;;;;;9.27;7.90;;;28.30;1.00;;;;;;5027648;28;20554;-71
2022/08/26 14:50:38;;;;;;;10.55;7.63;;;28.20;1.00;;;;;;5053131;28;20646;-70
2022/08/26 14:55:51;;;;;;;12.32;7.50;;;28.00;1.00;;;;;;5052567;28;20203;-70
2022/08/26 14:58:18;;;;;;;14.98;7.40;;;28.00;1.00;;;;;;5037801;28;20250;-69
2022/08/26 15:00:45;;;;;;;11.10;7.07;;;27.80;1.00;;;;;;5035920;28;20236;-69
2022/08/26 15:03:12;;;;;;;17.30;7.03;;;27.80;1.00;;;;;;5042999;28;20294;-69
2022/08/26 15:05:44;;;;;;;17.10;6.88;;;27.50;1.00;;;;;;5036145;28;20230;-70
2022/08/26 15:08:14;;;;;;;9.93;5.90;;;27.20;2.50;;;;;;5004183;28;20203;-71
2022/08/26 15:10:41;;;;;;;15.55;6.38;;;27.20;8.60;;;;;;5032301;28;20192;-69
2022/08/26 15:13:08;;;;;;;11.95;5.95;;;27.30;7.90;;;;;;5035936;28;20840;-69
2022/08/26 15:15:36;;;;;;;10.32;6.05;;;27.20;9.80;;;;;;5029310;28;20294;-69
2022/08/26 15:18:04;;;;;;;14.23;6.70;;;27.10;14.10;;;;;;5021656;28;20302;-69
2022/08/26 15:20:32;;;;;;;11.93;5.68;;;27.00;18.70;;;;;;5009566;28;20271;-69
2022/08/26 15:23:05;;;;;;;11.35;5.95;;;26.90;25.70;;;;;;5020239;28;20204;-69
2022/08/26 15:25:32;;;;;;;41.10;17.35;;;26.70;30.50;;;;;;5019734;28;20211;-69
2022/08/26 15:28:00;;;;;;;16.25;7.60;;;26.50;48.80;;;;;;5020308;28;20188;-68
2022/08/26 15:30:27;;;;;;;19.40;9.48;;;26.30;70.30;;;;;;5018005;28;20270;-68
2022/08/26 15:32:54;;;;;;;24.25;13.77;;;26.30;91.40;;;;;;5022120;28;20529;-68
2022/08/26 15:35:21;;;;;;;38.05;21.58;;;26.40;92.70;;;;;;5011685;28;20683;-69
2022/08/26 15:37:48;;;;;;;16.83;10.25;;;26.40;95.00;;;;;;5020816;28;20732;-69
2022/08/26 15:40:25;;;;;;;12.98;6.82;;;26.40;93.00;;;;;;4992058;28;20205;-69
2022/08/26 15:42:52;;;;;;;14.30;6.10;;;26.40;97.70;;;;;;4999711;28;20224;-70
2022/08/26 15:45:37;;;;;;;12.90;5.72;;;26.50;99.90;;;;;;5003324;28;20583;-70
2022/08/26 15:48:04;;;;;;;10.50;5.03;;;26.50;92.30;;;;;;5017880;28;20434;-71
2022/08/26 15:50:31;;;;;;;14.45;5.43;;;26.80;84.10;;;;;;5002423;28;20299;-70
2022/08/26 15:53:00;;;;;;;15.88;5.93;;;26.80;74.60;;;;;;5015348;28;20196;-70
2022/08/26 15:55:27;;;;;;;12.13;5.68;;;26.70;77.70;;;;;;5020102;28;20205;-69
2022/08/26 15:57:54;;;;;;;14.57;5.05;;;26.80;67.70;;;;;;5005648;28;20271;-70
2022/08/26 16:00:22;;;;;;;10.75;5.72;;;26.60;75.20;;;;;;5013155;28;20211;-70
2022/08/26 16:02:49;;;;;;;10.63;5.25;;;26.60;81.40;;;;;;5006688;28;20688;-68
2022/08/26 16:05:17;;;;;;;15.45;5.70;;;26.60;82.50;;;;;;5018703;28;20236;-69
2022/08/26 16:07:44;;;;;;;25.25;9.80;;;26.70;72.70;;;;;;5018461;28;20706;-71
2022/08/26 16:10:11;;;;;;;13.88;7.53;;;26.40;86.00;;;;;;5022018;28;20652;-70
2022/08/26 16:12:38;;;;;;;13.55;6.03;;;26.40;89.20;;;;;;5009411;28;20188;-70
2022/08/26 16:15:05;;;;;;;11.05;5.60;;;26.40;85.70;;;;;;4999847;28;20200;-70
2022/08/26 16:17:32;;;;;;;10.57;5.10;;;26.40;87.70;;;;;;5017665;28;20868;-70
2022/08/26 16:19:59;;;;;;;12.38;5.20;;;26.20;91.30;;;;;;5016166;28;20189;-70
2022/08/26 16:22:26;;;;;;;12.80;5.07;;;26.20;95.70;;;;;;5019213;28;20231;-70
2022/08/26 16:24:57;;;;;;;10.90;5.18;;;26.20;98.80;;;;;;5021009;28;20216;-70
2022/08/26 16:27:24;;;;;;;13.80;5.85;;;26.10;99.90;;;;;;5018191;28;20286;-70
2022/08/26 16:29:51;;;;;;;15.52;7.45;;;26.00;99.90;;;;;;4985789;28;20199;-70
2022/08/26 16:32:18;;;;;;;12.18;6.30;;;26.00;99.90;;;;;;5019244;28;20891;-70
2022/08/26 16:34:45;;;;;;;11.52;6.70;;;25.70;99.90;;;;;;5023563;28;20261;-70
2022/08/26 16:37:22;;;;;;;12.02;5.43;;;25.60;99.90;;;;;;5001895;28;20313;-71
2022/08/26 16:39:49;;;;;;;12.00;5.38;;;25.60;99.90;;;;;;5019973;28;20211;-71
2022/08/26 16:42:16;;;;;;;11.43;5.40;;;25.50;99.90;;;;;;5021689;28;20200;-70
2022/08/26 16:44:43;;;;;;;11.93;6.28;;;25.50;99.90;;;;;;5021352;28;20338;-70
2022/08/26 16:47:14;;;;;;;11.80;6.90;;;25.40;99.90;;;;;;5019367;28;20246;-71
2022/08/26 16:49:41;;;;;;;14.57;6.28;;;25.40;99.90;;;;;;5021584;28;20227;-70
2022/08/26 16:52:10;;;;;;;13.88;6.20;;;25.30;99.90;;;;;;5009006;28;20205;-70
2022/08/26 16:54:40;;;;;;;20.00;12.15;;;25.20;99.90;;;;;;5020505;28;20207;-69
2022/08/26 16:57:08;;;;;;;14.93;10.93;;;25.20;99.90;;;;;;5019314;28;20201;-72
2022/08/26 16:59:35;;;;;;;13.00;8.23;;;25.20;99.90;;;;;;5018203;28;20208;-69
2022/08/26 17:02:01;;;;;;;12.40;6.47;;;25.10;99.90;;;;;;5000578;28;20200;-69
2022/08/26 17:04:29;;;;;;;13.25;6.72;;;25.10;99.90;;;;;;5022070;28;20309;-70
2022/08/26 17:06:56;;;;;;;14.90;6.03;;;25.00;99.90;;;;;;5036756;28;20208;-69
2022/08/26 17:09:25;;;;;;;13.07;5.63;;;25.00;99.90;;;;;;5056136;28;20298;-68
2022/08/26 17:11:53;;;;;;;12.93;5.45;;;25.00;99.90;;;;;;5040209;28;20200;-69
2022/08/26 17:14:20;;;;;;;6.68;4.80;;;25.00;99.90;;;;;;5054417;28;20200;-70
2022/08/26 17:16:52;;;;;;;11.80;4.95;;;25.00;99.90;;;;;;5037492;28;20202;-68
2022/08/26 17:19:20;;;;;;;7.72;4.00;;;24.90;99.90;;;;;;5036248;28;20257;-68
2022/08/26 17:21:47;;;;;;;9.55;4.43;;;24.80;99.90;;;;;;5034323;28;20891;-69
2022/08/26 17:24:15;;;;;;;8.80;4.00;;;24.70;99.90;;;;;;5035976;28;20203;-68
2022/08/26 17:26:45;;;;;;;9.45;5.15;;;24.70;99.90;;;;;;5033253;28;20227;-69
2022/08/26 17:29:19;;;;;;;9.95;4.43;;;24.60;99.90;;;;;;5035101;28;20245;-69
2022/08/26 17:31:46;;;;;;;8.75;4.38;;;24.60;99.90;;;;;;5038860;28;20250;-68
2022/08/26 17:34:13;;;;;;;13.93;4.50;;;24.60;99.90;;;;;;5040152;28;20191;-69
2022/08/26 17:36:40;;;;;;;9.57;3.60;;;24.50;99.90;;;;;;5036212;28;20638;-68
2022/08/26 17:39:09;;;;;;;9.68;4.35;;;24.50;99.90;;;;;;5032699;28;20195;-69
2022/08/26 17:41:37;;;;;;;10.95;4.68;;;24.50;99.90;;;;;;5034923;28;20215;-69
2022/08/26 17:44:06;;;;;;;10.60;3.95;;;24.50;99.90;;;;;;5037260;28;20236;-71
2022/08/26 17:46:35;;;;;;;8.98;3.85;;;24.50;99.90;;;;;;5041330;28;20249;-69
2022/08/26 17:49:04;;;;;;;10.52;4.90;;;24.50;99.90;;;;;;5040052;28;20267;-69
2022/08/26 17:51:32;;;;;;;10.07;4.00;;;24.40;99.90;;;;;;5035098;28;20730;-69
2022/08/26 17:53:59;;;;;;;10.38;4.40;;;24.40;99.90;;;;;;5036268;28;20207;-68
2022/08/26 17:56:29;;;;;;;9.40;4.15;;;24.30;99.90;;;;;;5048420;28;20311;-69
2022/08/26 17:58:58;;;;;;;14.30;3.90;;;24.30;99.90;;;;;;5035995;28;20404;-69
2022/08/26 18:01:30;;;;;;;9.13;4.00;;;24.20;99.90;;;;;;5032744;28;20504;-70
2022/08/26 18:03:57;;;;;;;12.70;3.67;;;24.20;99.90;;;;;;5031187;28;20238;-68
2022/08/26 18:06:27;;;;;;;12.20;4.05;;;24.20;99.90;;;;;;5016919;28;20273;-68
2022/08/26 18:08:54;;;;;;;9.05;3.88;;;24.10;99.90;;;;;;4999490;28;20200;-69
2022/08/26 18:11:23;;;;;;;9.75;3.92;;;24.10;99.90;;;;;;5016143;28;20652;-70
2022/08/26 18:13:50;;;;;;;12.75;3.90;;;24.10;99.90;;;;;;5014983;28;20193;-68
2022/08/26 18:16:18;;;;;;;13.88;4.53;;;24.00;99.90;;;;;;4997074;28;20261;-69
2022/08/26 18:18:46;;;;;;;8.82;4.10;;;23.90;99.90;;;;;;5015753;28;20636;-69
2022/08/26 18:21:17;;;;;;;13.50;4.18;;;23.90;99.90;;;;;;4996515;28;20227;-69
2022/08/26 18:23:45;;;;;;;11.30;3.92;;;23.90;99.90;;;;;;5015994;28;20200;-69
2022/08/26 18:26:40;;;;;;;11.85;3.90;;;23.80;99.90;;;;;;5019166;28;20228;-69
2022/08/26 18:29:07;;;;;;;12.02;3.90;;;23.80;99.90;;;;;;5016355;28;20209;-70
2022/08/26 18:31:34;;;;;;;10.82;3.90;;;23.80;99.90;;;;;;5017149;28;20208;-69
2022/08/26 18:34:02;;;;;;;11.70;3.88;;;23.80;99.90;;;;;;5005373;28;20669;-68
2022/08/26 18:36:32;;;;;;;6.93;3.28;;;23.80;99.90;;;;;;5000201;28;20196;-68
2022/08/26 18:38:59;;;;;;;9.20;3.50;;;23.80;99.90;;;;;;5001511;28;20254;-71
2022/08/26 18:41:29;;;;;;;13.10;4.05;;;23.80;99.90;;;;;;5015328;28;21044;-68
2022/08/26 18:43:56;;;;;;;12.20;4.63;;;23.80;99.90;;;;;;5008837;28;20210;-68
2022/08/26 18:46:26;;;;;;;15.13;8.27;;;23.70;99.90;;;;;;4997295;28;20282;-68
2022/08/26 18:48:55;;;;;;;13.70;9.30;;;23.60;1.00;;;;;;5014199;28;20204;-68
2022/08/26 18:51:28;;;;;;;9.27;6.82;;;23.60;1.00;;;;;;5015466;28;20200;-69
2022/08/26 18:53:56;;;;;;;10.65;5.18;;;23.60;1.00;;;;;;5007278;28;20247;-69
2022/08/26 18:56:23;;;;;;;11.60;3.63;;;23.60;1.00;;;;;;5005463;28;20282;-68
2022/08/26 18:58:50;;;;;;;9.35;3.60;;;23.60;1.00;;;;;;5019509;28;20208;-69
2022/08/26 19:01:18;;;;;;;10.48;3.42;;;23.50;1.00;;;;;;5016538;28;20644;-68
2022/08/26 19:03:48;;;;;;;9.27;3.65;;;23.50;1.00;;;;;;5008956;28;20247;-68
2022/08/26 19:06:20;;;;;;;7.22;3.10;;;23.50;1.00;;;;;;5015920;28;20208;-68
2022/08/26 19:08:47;;;;;;;8.98;3.50;;;23.50;1.00;;;;;;5004707;28;20192;-68
2022/08/26 19:11:18;;;;;;;7.03;3.45;;;23.40;1.00;;;;;;5016788;28;20201;-69
2022/08/26 19:14:07;;;;;;;8.50;3.67;;;23.50;1.00;;;;;;5022154;28;20207;-69
2022/08/26 19:16:36;;;;;;;6.72;3.05;;;23.40;1.00;;;;;;4998454;28;22112;-68
2022/08/26 19:19:04;;;;;;;9.00;3.50;;;23.40;1.00;;;;;;5003680;28;20213;-69
2022/08/26 19:21:32;;;;;;;10.52;3.85;;;23.30;1.00;;;;;;5021315;28;20614;-69
2022/08/26 19:24:01;;;;;;;11.75;4.05;;;23.30;1.00;;;;;;5009728;28;20200;-68
2022/08/26 19:26:29;;;;;;;5.47;3.30;;;23.30;1.00;;;;;;5018780;28;20228;-68
2022/08/26 19:28:57;;;;;;;12.55;7.28;;;23.30;1.00;;;;;;5019991;28;20215;-68
2022/08/26 19:31:24;;;;;;;12.20;6.57;;;23.30;1.00;;;;;;5019561;28;20278;-69
2022/08/26 19:33:52;;;;;;;12.13;5.35;;;23.30;1.00;;;;;;5002444;28;20224;-69
2022/08/26 19:36:22;;;;;;;12.63;5.10;;;23.20;1.00;;;;;;5014967;28;20212;-69
2022/08/26 19:38:49;;;;;;;10.50;4.35;;;23.20;1.00;;;;;;4991985;28;20228;-69
2022/08/26 19:41:19;;;;;;;5.97;3.53;;;23.10;1.00;;;;;;5017982;28;20224;-69
2022/08/26 19:43:47;;;;;;;7.00;3.55;;;23.10;1.00;;;;;;4983146;28;20208;-69
2022/08/26 19:46:18;;;;;;;6.38;3.38;;;23.10;1.00;;;;;;5017556;28;20303;-68
2022/08/26 19:48:46;;;;;;;6.20;3.83;;;23.10;1.00;;;;;;5017866;28;20196;-68
2022/08/26 19:51:24;;;;;;;8.50;3.88;;;23.00;1.00;;;;;;5016892;28;20192;-69
2022/08/26 19:53:53;;;;;;;8.60;3.97;;;23.00;1.00;;;;;;4999636;28;20259;-69
2022/08/26 19:56:21;;;;;;;11.50;6.45;;;23.00;1.00;;;;;;5004760;28;20744;-69
2022/08/26 19:58:49;;;;;;;9.55;5.55;;;22.90;1.00;;;;;;5002525;28;20207;-69
2022/08/26 20:01:18;;;;;;;9.63;5.03;;;22.80;1.00;;;;;;4999257;28;20184;-69
2022/08/26 20:03:45;;;;;;;8.27;4.80;;;22.80;1.00;;;;;;4999319;28;20332;-69
2022/08/26 20:06:15;;;;;;;8.10;4.18;;;22.80;1.00;;;;;;4998790;28;20265;-69
2022/08/26 20:08:43;;;;;;;8.00;3.90;;;22.70;1.00;;;;;;5018295;28;20193;-69
2022/08/26 20:11:14;;;;;;;10.43;5.30;;;22.60;1.00;;;;;;5016265;28;20219;-69
2022/08/26 20:13:42;;;;;;;11.27;6.32;;;22.60;1.00;;;;;;5018114;28;20192;-70
2022/08/26 20:16:10;;;;;;;8.57;4.35;;;22.50;1.00;;;;;;5006777;28;20754;-69
2022/08/26 20:21:31;;;;;;;11.75;4.85;;;22.50;1.00;;;;;;5018386;28;20251;-69
2022/08/26 20:24:02;;;;;;;7.20;4.10;;;22.40;1.00;;;;;;5004653;28;20185;-69
2022/08/26 20:26:32;;;;;;;12.27;5.30;;;22.40;1.00;;;;;;4997794;28;20851;-69
2022/08/26 20:29:00;;;;;;;8.98;4.57;;;22.30;1.00;;;;;;5018625;28;20255;-69
2022/08/26 20:31:27;;;;;;;9.95;4.40;;;22.40;1.00;;;;;;5015540;28;20358;-69
2022/08/26 20:33:54;;;;;;;11.05;4.43;;;22.30;1.00;;;;;;5003326;28;20185;-69
2022/08/26 20:36:25;;;;;;;12.20;4.50;;;22.30;1.00;;;;;;5016468;28;20207;-69
2022/08/26 20:38:53;;;;;;;7.32;3.65;;;22.30;1.00;;;;;;5016714;28;20317;-69
2022/08/26 20:41:22;;;;;;;6.80;4.20;;;22.50;1.00;;;;;;4999418;28;20208;-69
2022/08/26 20:43:52;;;;;;;12.00;4.25;;;22.50;1.00;;;;;;5015348;28;20200;-69
2022/08/26 20:46:20;;;;;;;8.32;3.38;;;22.50;1.00;;;;;;5014872;28;20235;-71
2022/08/26 20:48:52;;;;;;;11.35;4.45;;;22.50;1.00;;;;;;4999077;28;20226;-69
2022/08/26 20:51:22;;;;;;;10.05;4.40;;;22.60;1.00;;;;;;5014759;28;20200;-68
2022/08/26 20:53:49;;;;;;;10.25;3.92;;;22.60;1.00;;;;;;4997642;28;20266;-69
2022/08/26 20:56:21;;;;;;;12.00;3.90;;;22.60;1.00;;;;;;5013715;28;20726;-69
2022/08/26 20:58:48;;;;;;;10.77;4.45;;;22.30;1.00;;;;;;5016045;28;20313;-69
2022/08/26 21:01:19;;;;;;;8.93;3.80;;;22.40;1.00;;;;;;4995067;28;20200;-69
2022/08/26 21:03:46;;;;;;;11.77;4.20;;;22.50;1.00;;;;;;5012737;28;20323;-69
2022/08/26 21:06:13;;;;;;;7.95;3.83;;;22.50;1.00;;;;;;4997835;28;20208;-68
2022/08/26 21:08:40;;;;;;;9.90;3.83;;;22.60;1.00;;;;;;5017664;28;20199;-69
2022/08/26 21:11:09;;;;;;;10.07;4.25;;;22.40;1.00;;;;;;5000465;28;20192;-69
2022/08/26 21:13:37;;;;;;;8.23;4.22;;;22.30;1.00;;;;;;5003870;28;20188;-69
2022/08/26 21:16:24;;;;;;;9.23;3.78;;;22.40;1.00;;;;;;5003083;28;20202;-69
2022/08/26 21:18:52;;;;;;;7.88;3.50;;;22.40;1.00;;;;;;5018649;28;20729;-70
2022/08/26 21:21:19;;;;;;;7.75;4.18;;;22.20;1.00;;;;;;5016494;28;20201;-70
2022/08/26 21:23:51;;;;;;;15.00;4.45;;;22.20;1.00;;;;;;5003401;28;20688;-69
2022/08/26 21:26:18;;;;;;;10.23;4.10;;;22.00;1.00;;;;;;5015422;28;20225;-69
2022/08/26 21:28:46;;;;;;;9.85;4.63;;;22.00;1.00;;;;;;5000046;28;20204;-69
2022/08/26 21:31:15;;;;;;;8.20;3.92;;;21.90;1.00;;;;;;4997083;28;20200;-69
2022/08/26 21:33:43;;;;;;;11.73;4.53;;;22.00;1.00;;;;;;4983792;28;20746;-69
2022/08/26 21:36:12;;;;;;;15.35;4.32;;;21.90;1.00;;;;;;5016707;28;20266;-69
2022/08/26 21:38:40;;;;;;;8.25;3.90;;;22.00;1.00;;;;;;5004467;28;20203;-69
2022/08/26 21:41:11;;;;;;;11.90;4.45;;;22.10;1.00;;;;;;4997611;28;20730;-69
2022/08/26 21:43:40;;;;;;;8.02;3.85;;;22.00;1.00;;;;;;4999488;28;20188;-69
2022/08/26 21:46:13;;;;;;;10.95;4.43;;;22.00;1.00;;;;;;4986081;28;20277;-69
2022/08/26 21:48:43;;;;;;;8.95;4.43;;;22.20;1.00;;;;;;4998822;28;20203;-69
2022/08/26 21:51:18;;;;;;;7.72;3.92;;;22.20;1.00;;;;;;4999733;28;20187;-71
2022/08/26 21:53:45;;;;;;;10.10;4.13;;;22.30;1.00;;;;;;5017429;28;20463;-69
2022/08/26 21:56:14;;;;;;;11.43;4.40;;;22.10;1.00;;;;;;4984966;28;20254;-69
2022/08/26 21:58:42;;;;;;;11.63;4.53;;;21.90;1.00;;;;;;4997582;28;20200;-69
2022/08/26 22:01:12;;;;;;;6.50;3.50;;;21.80;1.00;;;;;;4995249;28;20208;-69
2022/08/26 22:03:39;;;;;;;8.07;3.80;;;21.70;1.00;;;;;;5016442;28;20229;-68
2022/08/26 22:06:16;;;;;;;10.25;4.22;;;21.70;1.00;;;;;;5017601;28;20551;-69
2022/08/26 22:08:43;;;;;;;8.68;4.20;;;21.70;1.00;;;;;;5013496;28;20786;-69
2022/08/26 22:11:10;;;;;;;11.88;4.25;;;21.60;1.00;;;;;;4981248;28;20224;-69
2022/08/26 22:13:39;;;;;;;10.73;4.40;;;21.70;1.00;;;;;;5014908;28;20196;-69
2022/08/26 22:16:07;;;;;;;15.02;4.85;;;21.60;1.00;;;;;;4998778;28;20228;-71
2022/08/26 22:18:34;;;;;;;9.77;4.22;;;21.80;1.00;;;;;;5013235;28;20284;-70
2022/08/26 22:21:05;;;;;;;8.60;3.72;;;21.90;1.00;;;;;;5011566;28;20192;-71
2022/08/26 22:23:34;;;;;;;11.55;4.72;;;22.00;1.00;;;;;;4996698;28;20212;-69
2022/08/26 22:26:01;;;;;;;11.15;4.55;;;21.80;1.00;;;;;;4994729;28;20266;-68
2022/08/26 22:28:28;;;;;;;9.50;4.30;;;21.80;1.00;;;;;;5004678;28;20735;-71
2022/08/26 22:30:55;;;;;;;8.23;4.25;;;21.90;1.00;;;;;;4996998;28;20232;-71
2022/08/26 22:33:23;;;;;;;12.40;5.28;;;21.80;1.00;;;;;;5000856;28;20843;-71
2022/08/26 22:35:51;;;;;;;10.48;5.13;;;21.80;1.00;;;;;;5007980;28;20282;-71
2022/08/26 22:38:20;;;;;;;12.30;4.78;;;21.50;1.00;;;;;;5018112;28;20254;-71
2022/08/26 22:40:49;;;;;;;10.55;4.85;;;21.60;1.00;;;;;;5016519;28;20315;-69
2022/08/26 22:43:17;;;;;;;7.70;5.28;;;21.60;1.00;;;;;;5017110;28;20246;-69
2022/08/26 22:45:47;;;;;;;12.50;5.25;;;21.80;1.00;;;;;;4997389;28;21259;-71
2022/08/26 22:48:22;;;;;;;12.90;5.50;;;21.60;1.00;;;;;;4996911;28;20266;-69
2022/08/26 22:50:50;;;;;;;9.35;5.15;;;21.60;1.00;;;;;;5008010;28;20254;-68
2022/08/26 22:53:17;;;;;;;11.05;5.82;;;21.40;24.50;;;;;;5020660;28;20193;-69
2022/08/26 22:55:45;;;;;;;10.45;5.05;;;21.40;1.00;;;;;;5021866;28;20185;-69
2022/08/26 22:58:14;;;;;;;9.10;4.85;;;21.60;1.00;;;;;;5001623;28;20267;-69
2022/08/26 23:00:43;;;;;;;10.45;6.07;;;21.60;1.00;;;;;;5018799;28;20199;-68
2022/08/26 23:03:11;;;;;;;10.68;5.65;;;21.30;59.30;;;;;;4999686;28;20219;-68
2022/08/26 23:05:39;;;;;;;9.45;6.45;;;21.00;99.90;;;;;;5035031;28;21255;-69
2022/08/26 23:08:07;;;;;;;10.90;6.00;;;20.90;99.90;;;;;;5035508;28;20317;-69
2022/08/26 23:10:35;;;;;;;9.98;5.85;;;21.00;99.90;;;;;;5034899;28;20246;-68
2022/08/26 23:13:06;;;;;;;21.13;14.05;;;21.00;99.90;;;;;;5034307;28;20198;-69
2022/08/26 23:15:34;;;;;;;9.23;5.88;;;20.80;99.90;;;;;;5038664;28;20192;-69
2022/08/26 23:18:01;;;;;;;8.05;6.05;;;20.90;99.90;;;;;;5026913;28;20199;-69
2022/08/26 23:20:28;;;;;;;10.68;6.70;;;21.00;99.90;;;;;;5037481;28;20626;-70
2022/08/26 23:22:55;;;;;;;9.45;6.88;;;21.10;99.90;;;;;;5036990;28;20204;-69
2022/08/26 23:25:22;;;;;;;9.10;5.18;;;20.90;99.90;;;;;;5040586;28;20945;-69
2022/08/26 23:27:50;;;;;;;8.15;6.55;;;21.00;99.90;;;;;;5041754;28;20327;-69
2022/08/26 23:30:23;;;;;;;10.65;6.03;;;21.00;99.90;;;;;;5040905;28;20767;-69
2022/08/26 23:32:50;;;;;;;13.57;7.47;;;20.90;99.90;;;;;;5040290;28;20201;-69
2022/08/26 23:35:20;;;;;;;9.13;6.10;;;20.90;99.90;;;;;;5052233;28;20230;-69
2022/08/26 23:37:51;;;;;;;6.35;5.07;;;20.90;99.90;;;;;;5020090;28;20195;-69
2022/08/26 23:40:31;;;;;;;11.05;6.88;;;21.00;99.90;;;;;;5044473;28;20238;-72
2022/08/26 23:43:04;;;;;;;14.55;5.80;;;20.80;99.90;;;;;;5039257;28;20257;-69
2022/08/26 23:45:33;;;;;;;10.77;6.20;;;20.80;99.90;;;;;;5038045;28;20592;-69
2022/08/26 23:48:01;;;;;;;8.93;6.93;;;20.70;99.90;;;;;;5037369;28;20235;-71
2022/08/26 23:53:19;;;;;;;9.20;7.22;;;20.50;1.00;;;;;;5039792;28;20199;-69
2022/08/26 23:55:48;;;;;;;12.35;6.95;;;20.70;99.90;;;;;;5041095;28;20253;-71
2022/08/26 23:58:17;;;;;;;9.93;6.28;;;20.70;99.90;;;;;;5039617;28;20223;-70
